Time;durP1;ratioP1;P1;durP2;ratioP2;P2;SDS_P1;SDS_P2;PMS_P1;PMS_P2;Temp;Humidity;BMP_temperature;BMP_pressure;BME280_temperature;BME280_humidity;BME280_pressure;Samples;Min_cycle;Max_cycle;Signal;HPM_P1;HPM_P2
2023/01/16 00:02:13;;;;;;;8.53;1.10;;;3.40;99.90;;;;;;6248882;23;20153;-79
2023/01/16 00:04:38;;;;;;;3.60;1.38;;;3.40;99.90;;;;;;6256665;22;20164;-80
2023/01/16 00:07:04;;;;;;;1.20;0.90;;;3.40;99.90;;;;;;6242915;23;20156;-79
2023/01/16 00:09:29;;;;;;;2.73;1.60;;;3.40;99.90;;;;;;6241601;23;20181;-80
2023/01/16 00:11:55;;;;;;;2.10;0.80;;;3.30;99.90;;;;;;6256497;23;20164;-80
2023/01/16 00:14:20;;;;;;;2.33;0.90;;;3.30;99.90;;;;;;6264896;22;20175;-79
2023/01/16 00:16:46;;;;;;;1.73;1.20;;;3.40;99.90;;;;;;6257292;23;20215;-80
2023/01/16 00:19:11;;;;;;;1.83;0.80;;;3.40;99.90;;;;;;6237564;23;20153;-81
2023/01/16 00:21:37;;;;;;;8.13;0.90;;;3.40;99.90;;;;;;6243229;23;20172;-80
2023/01/16 00:24:03;;;;;;;0.97;0.70;;;3.40;99.90;;;;;;6242622;23;20206;-79
2023/01/16 00:26:29;;;;;;;2.78;1.17;;;3.40;99.90;;;;;;6244973;22;20176;-81
2023/01/16 00:28:55;;;;;;;2.65;2.10;;;3.40;99.90;;;;;;6256214;22;20184;-84
2023/01/16 00:31:23;;;;;;;2.63;0.90;;;3.40;99.90;;;;;;6240449;23;20160;-81
2023/01/16 00:33:48;;;;;;;4.85;1.42;;;3.40;99.90;;;;;;6239709;23;20154;-78
2023/01/16 00:36:14;;;;;;;1.17;0.70;;;3.40;99.90;;;;;;6234992;23;20184;-82
2023/01/16 00:38:40;;;;;;;2.23;0.97;;;3.40;99.90;;;;;;6239033;23;20593;-79
2023/01/16 00:41:05;;;;;;;8.53;1.10;;;3.50;99.90;;;;;;6240991;23;20153;-81
2023/01/16 00:43:32;;;;;;;2.77;0.90;;;3.60;99.90;;;;;;6239624;23;20283;-81
2023/01/16 00:45:57;;;;;;;2.67;1.30;;;3.70;99.90;;;;;;6239179;22;20155;-81
2023/01/16 00:48:23;;;;;;;4.30;1.40;;;3.70;99.90;;;;;;6238577;23;20176;-81
2023/01/16 00:50:49;;;;;;;1.70;1.25;;;3.60;99.90;;;;;;6235575;23;20287;-81
2023/01/16 00:53:15;;;;;;;3.72;1.25;;;3.60;99.90;;;;;;6250607;23;20188;-80
2023/01/16 00:55:41;;;;;;;1.60;1.00;;;3.60;99.90;;;;;;6245779;22;20153;-81
2023/01/16 00:58:08;;;;;;;1.45;0.90;;;3.50;99.90;;;;;;6241975;23;20391;-79
2023/01/16 01:00:33;;;;;;;3.80;0.65;;;3.50;99.90;;;;;;6238675;23;20592;-83
2023/01/16 01:02:59;;;;;;;0.80;0.73;;;3.50;99.90;;;;;;6242432;23;20180;-85
2023/01/16 01:05:25;;;;;;;1.00;0.63;;;3.30;99.90;;;;;;6241474;23;20168;-81
2023/01/16 01:07:50;;;;;;;2.53;0.73;;;3.30;99.90;;;;;;6241104;23;20184;-82
2023/01/16 01:10:17;;;;;;;13.63;2.63;;;3.20;99.90;;;;;;6243599;23;20162;-78
2023/01/16 01:12:42;;;;;;;2.25;0.60;;;3.20;99.90;;;;;;6241308;23;20176;-81
2023/01/16 01:15:09;;;;;;;1.60;0.93;;;3.30;99.90;;;;;;6241402;23;20280;-83
2023/01/16 01:17:34;;;;;;;4.25;0.80;;;3.30;99.90;;;;;;6237935;23;20168;-79
2023/01/16 01:20:00;;;;;;;6.13;1.17;;;3.30;99.90;;;;;;6238224;23;20497;-81
2023/01/16 01:22:26;;;;;;;2.23;0.80;;;3.40;99.90;;;;;;6237873;23;20612;-81
2023/01/16 01:24:52;;;;;;;0.93;0.75;;;3.40;99.90;;;;;;6237251;23;20191;-81
2023/01/16 01:27:17;;;;;;;2.70;0.93;;;3.40;99.90;;;;;;6253257;22;20160;-79
2023/01/16 01:29:43;;;;;;;0.90;0.50;;;3.40;99.90;;;;;;6251132;22;20927;-79
2023/01/16 01:32:09;;;;;;;2.87;0.80;;;3.40;99.90;;;;;;6252653;22;20155;-81
2023/01/16 01:34:34;;;;;;;1.93;0.77;;;3.30;99.90;;;;;;6262496;22;20140;-82
2023/01/16 01:37:01;;;;;;;3.23;0.90;;;3.30;99.90;;;;;;6240539;23;20390;-82
2023/01/16 01:39:27;;;;;;;0.90;0.77;;;3.30;99.90;;;;;;6240019;22;20164;-82
2023/01/16 01:42:41;;;;;;;1.50;0.70;;;3.20;99.90;;;;;;6241234;22;20156;-77
2023/01/16 01:44:54;;;;;;;1.48;0.90;;;3.30;99.90;;;;;;6247503;22;20216;-82
2023/01/16 01:47:31;;;;;;;0.93;0.70;;;3.20;99.90;;;;;;6236763;22;20202;-82
2023/01/16 01:50:00;;;;;;;0.50;0.47;;;3.20;99.90;;;;;;6233940;23;20148;-78
2023/01/16 01:52:27;;;;;;;1.33;0.75;;;3.10;99.90;;;;;;6233318;23;20188;-82
2023/01/16 01:54:59;;;;;;;2.58;0.68;;;3.00;99.90;;;;;;6235416;23;20191;-82
2023/01/16 01:57:30;;;;;;;0.93;0.55;;;2.90;99.90;;;;;;6240031;23;20141;-81
2023/01/16 02:00:04;;;;;;;0.95;0.40;;;3.00;99.90;;;;;;6236055;23;20149;-84
2023/01/16 02:02:34;;;;;;;2.05;0.85;;;3.00;99.90;;;;;;6236910;23;20207;-83
2023/01/16 02:05:03;;;;;;;1.77;1.08;;;2.90;99.90;;;;;;6240187;22;20383;-79
2023/01/16 02:07:29;;;;;;;8.32;1.00;;;2.90;99.90;;;;;;6245851;22;20172;-77
2023/01/16 02:10:10;;;;;;;1.60;1.00;;;2.90;99.90;;;;;;6244868;22;20619;-82
2023/01/16 02:12:36;;;;;;;1.67;0.68;;;2.90;99.90;;;;;;6244512;22;20398;-80
2023/01/16 02:15:02;;;;;;;0.70;0.60;;;2.90;99.90;;;;;;6241959;23;20141;-80
2023/01/16 02:20:24;;;;;;;6.45;1.08;;;2.90;99.90;;;;;;6239750;23;20191;-81
2023/01/16 02:23:09;;;;;;;2.47;0.98;;;2.80;99.90;;;;;;6242544;22;20310;-83
2023/01/16 02:26:19;;;;;;;5.68;1.20;;;2.80;99.90;;;;;;6238414;23;20219;-85
2023/01/16 02:29:25;;;;;;;1.08;0.70;;;2.80;99.90;;;;;;6239607;23;20180;-81
2023/01/16 02:32:19;;;;;;;1.98;0.85;;;2.80;99.90;;;;;;6240010;22;20169;-79
2023/01/16 02:35:10;;;;;;;1.23;0.70;;;2.80;99.90;;;;;;6240956;23;20145;-83
2023/01/16 02:37:43;;;;;;;1.35;0.65;;;2.70;99.90;;;;;;6242036;23;20219;-80
2023/01/16 02:40:21;;;;;;;1.70;0.77;;;2.70;99.90;;;;;;6238929;23;20256;-82
2023/01/16 02:43:16;;;;;;;1.90;1.00;;;2.80;99.90;;;;;;6240358;23;20179;-80
2023/01/16 02:45:57;;;;;;;0.65;0.55;;;2.80;99.90;;;;;;6238628;23;20772;-82
2023/01/16 02:48:52;;;;;;;2.55;0.82;;;2.90;99.90;;;;;;6240985;22;20888;-79
2023/01/16 02:51:36;;;;;;;3.47;0.90;;;3.00;99.90;;;;;;6131062;22;20162;-82
2023/01/16 02:54:27;;;;;;;4.32;0.80;;;3.00;99.90;;;;;;6246822;22;20181;-78
2023/01/16 02:57:03;;;;;;;3.15;0.65;;;2.90;99.90;;;;;;6268921;22;20218;-79
2023/01/16 02:59:29;;;;;;;0.95;0.60;;;3.00;99.90;;;;;;6261649;22;20156;-84
2023/01/16 03:01:56;;;;;;;0.50;0.50;;;3.10;99.90;;;;;;6241916;23;20168;-81
2023/01/16 03:04:52;;;;;;;4.93;1.02;;;3.10;99.90;;;;;;6267774;22;20145;-79
2023/01/16 03:07:36;;;;;;;1.10;0.63;;;3.20;99.90;;;;;;6245274;23;20188;-83
2023/01/16 03:10:36;;;;;;;0.40;0.30;;;3.20;99.90;;;;;;6241233;23;20248;-83
2023/01/16 03:13:20;;;;;;;5.85;0.82;;;3.30;99.90;;;;;;6237829;23;20200;-80
2023/01/16 03:15:55;;;;;;;1.70;0.75;;;3.30;99.90;;;;;;6237230;23;20171;-80
2023/01/16 03:18:34;;;;;;;1.48;0.65;;;3.30;99.90;;;;;;6232774;23;20140;-81
2023/01/16 03:21:31;;;;;;;1.75;0.43;;;3.30;99.90;;;;;;6233351;23;20310;-81
2023/01/16 03:24:25;;;;;;;1.25;0.55;;;3.30;99.90;;;;;;6235881;23;20749;-82
2023/01/16 03:26:58;;;;;;;1.95;0.63;;;3.20;99.90;;;;;;6249844;23;20183;-85
2023/01/16 03:29:33;;;;;;;5.30;0.85;;;3.20;99.90;;;;;;6242369;22;20128;-83
2023/01/16 03:32:08;;;;;;;2.15;0.70;;;3.20;99.90;;;;;;6236145;22;20175;-82
2023/01/16 03:35:10;;;;;;;3.97;0.93;;;3.20;99.90;;;;;;6238629;23;20225;-83
2023/01/16 03:37:59;;;;;;;3.35;0.88;;;3.30;99.90;;;;;;6160998;23;20238;-81
2023/01/16 03:40:29;;;;;;;1.65;1.00;;;3.40;99.90;;;;;;6238373;23;20152;-82
2023/01/16 03:43:04;;;;;;;1.27;0.70;;;3.40;99.90;;;;;;6254180;22;20164;-81
2023/01/16 03:45:33;;;;;;;3.15;0.57;;;3.50;99.90;;;;;;6254486;23;20239;-81
2023/01/16 03:48:18;;;;;;;8.77;0.90;;;3.50;99.90;;;;;;6257149;23;20255;-79
2023/01/16 03:50:53;;;;;;;1.85;1.02;;;3.40;99.90;;;;;;6255536;23;20152;-83
2023/01/16 03:53:23;;;;;;;4.05;0.73;;;3.40;99.90;;;;;;6253626;22;20183;-79
2023/01/16 03:56:15;;;;;;;0.80;0.73;;;3.50;99.90;;;;;;6257196;22;20147;-80
2023/01/16 03:58:45;;;;;;;4.63;0.77;;;3.60;99.90;;;;;;6258620;22;20145;-82
2023/01/16 04:01:21;;;;;;;0.95;0.52;;;3.70;99.90;;;;;;6258528;22;20211;-80
2023/01/16 04:04:02;;;;;;;4.57;0.75;;;3.80;99.90;;;;;;6255126;23;20203;-82
2023/01/16 04:06:35;;;;;;;3.40;1.27;;;3.80;99.90;;;;;;6262238;23;20167;-79
2023/01/16 04:09:06;;;;;;;2.10;0.77;;;3.70;99.90;;;;;;6262423;22;20187;-79
2023/01/16 04:11:35;;;;;;;7.25;0.75;;;3.80;99.90;;;;;;6262151;23;20140;-77
2023/01/16 04:14:03;;;;;;;2.20;0.73;;;3.80;99.90;;;;;;6268018;22;20171;-78
2023/01/16 04:16:29;;;;;;;2.75;0.60;;;3.90;99.90;;;;;;6259844;22;20145;-77
2023/01/16 04:18:57;;;;;;;0.93;0.40;;;3.90;99.90;;;;;;6255913;22;20164;-81
2023/01/16 04:21:27;;;;;;;0.80;0.63;;;3.90;99.90;;;;;;6242206;22;20677;-81
2023/01/16 04:23:55;;;;;;;0.55;0.50;;;3.90;99.90;;;;;;6243257;23;20194;-81
2023/01/16 04:26:20;;;;;;;2.05;0.70;;;4.00;99.90;;;;;;6244266;22;20149;-80
2023/01/16 04:28:46;;;;;;;3.80;1.00;;;4.00;99.90;;;;;;6245074;23;20176;-83
2023/01/16 04:31:11;;;;;;;0.83;0.60;;;4.00;99.90;;;;;;6245422;23;20152;-81
2023/01/16 04:33:37;;;;;;;0.97;0.50;;;4.00;99.90;;;;;;6258713;23;20214;-80
2023/01/16 04:36:03;;;;;;;1.07;0.53;;;4.10;99.90;;;;;;6250850;23;20148;-83
2023/01/16 04:38:28;;;;;;;2.00;0.73;;;4.10;99.90;;;;;;6239532;23;20259;-78
2023/01/16 04:40:54;;;;;;;8.80;0.73;;;4.10;99.90;;;;;;6245106;23;20155;-83
2023/01/16 04:43:20;;;;;;;2.33;0.63;;;4.00;99.90;;;;;;6240721;23;20168;-80
2023/01/16 04:45:46;;;;;;;4.53;0.63;;;3.90;99.90;;;;;;6248605;22;20241;-84
2023/01/16 04:48:12;;;;;;;2.28;0.90;;;3.80;99.90;;;;;;6244079;23;20176;-85
2023/01/16 04:50:38;;;;;;;2.50;0.77;;;3.80;99.90;;;;;;6238481;23;20144;-82
2023/01/16 04:53:03;;;;;;;3.70;1.40;;;3.70;99.90;;;;;;6237806;23;20184;-83
2023/01/16 04:55:29;;;;;;;2.13;1.43;;;3.60;99.90;;;;;;6235630;23;20202;-82
2023/01/16 04:57:54;;;;;;;3.57;1.33;;;3.50;99.90;;;;;;6236702;23;20167;-80
2023/01/16 05:00:20;;;;;;;1.53;1.17;;;3.50;99.90;;;;;;6235754;23;20168;-82
2023/01/16 05:02:46;;;;;;;4.77;2.17;;;3.50;99.90;;;;;;6236737;23;20180;-82
2023/01/16 05:05:11;;;;;;;3.43;1.07;;;3.50;99.90;;;;;;6237209;23;20375;-80
2023/01/16 05:07:37;;;;;;;7.97;1.70;;;3.40;99.90;;;;;;6234065;23;20183;-79
2023/01/16 05:10:03;;;;;;;3.03;0.93;;;3.30;99.90;;;;;;6237338;23;20152;-82
2023/01/16 05:12:28;;;;;;;4.20;0.67;;;3.30;99.90;;;;;;6234892;23;20180;-82
2023/01/16 05:14:53;;;;;;;1.13;0.70;;;3.30;99.90;;;;;;6233860;23;20595;-83
2023/01/16 05:17:24;;;;;;;2.33;0.83;;;3.20;99.90;;;;;;6236606;23;20156;-78
2023/01/16 05:19:49;;;;;;;2.45;0.93;;;3.20;99.90;;;;;;6234159;23;20149;-81
2023/01/16 05:22:15;;;;;;;2.20;0.57;;;3.20;99.90;;;;;;6237805;23;20222;-80
2023/01/16 05:24:40;;;;;;;1.73;0.53;;;3.20;99.90;;;;;;6260386;22;20153;-79
2023/01/16 05:27:06;;;;;;;1.13;0.93;;;3.20;99.90;;;;;;6246766;23;20149;-84
2023/01/16 05:29:31;;;;;;;1.80;0.80;;;3.10;99.90;;;;;;6253946;22;20895;-81
2023/01/16 05:31:57;;;;;;;2.50;0.87;;;3.00;99.90;;;;;;6241796;23;20178;-81
2023/01/16 05:34:22;;;;;;;4.23;0.60;;;3.00;99.90;;;;;;6240134;23;20721;-79
2023/01/16 05:36:48;;;;;;;1.07;0.50;;;2.90;99.90;;;;;;6264733;23;20164;-78
2023/01/16 05:39:14;;;;;;;3.13;0.80;;;2.90;99.90;;;;;;6261277;22;20145;-78
2023/01/16 05:41:40;;;;;;;2.30;0.77;;;2.90;99.90;;;;;;6240170;23;20194;-82
2023/01/16 05:44:05;;;;;;;2.27;1.37;;;2.90;99.90;;;;;;6234970;23;20157;-82
2023/01/16 05:46:31;;;;;;;6.23;1.67;;;3.00;99.90;;;;;;6241054;23;20156;-81
2023/01/16 05:48:56;;;;;;;5.63;0.87;;;3.00;99.90;;;;;;6238156;23;20172;-83
2023/01/16 05:51:22;;;;;;;2.83;0.40;;;2.90;99.90;;;;;;6236012;23;20164;-82
2023/01/16 05:53:51;;;;;;;1.53;0.60;;;2.90;99.90;;;;;;6236886;23;20157;-80
2023/01/16 05:56:21;;;;;;;2.20;0.70;;;2.90;99.90;;;;;;6239692;22;20174;-82
2023/01/16 05:58:46;;;;;;;1.15;0.50;;;2.90;99.90;;;;;;6234031;23;20582;-82
2023/01/16 06:01:12;;;;;;;0.77;0.50;;;2.90;99.90;;;;;;6241618;23;20194;-83
2023/01/16 06:03:38;;;;;;;2.50;0.67;;;3.00;99.90;;;;;;6251016;23;20164;-80
2023/01/16 06:06:05;;;;;;;1.75;0.82;;;3.10;99.90;;;;;;6255066;22;20159;-81
2023/01/16 06:08:31;;;;;;;1.08;0.50;;;3.10;99.90;;;;;;6243499;23;20233;-81
2023/01/16 06:10:57;;;;;;;0.60;0.57;;;3.10;99.90;;;;;;6239371;23;20149;-83
2023/01/16 06:13:23;;;;;;;1.43;0.70;;;3.10;99.90;;;;;;6239770;23;20161;-82
2023/01/16 06:15:48;;;;;;;1.43;0.60;;;3.10;99.90;;;;;;6237115;23;20145;-81
2023/01/16 06:18:14;;;;;;;2.63;0.87;;;3.20;99.90;;;;;;6238259;23;20140;-81
2023/01/16 06:20:40;;;;;;;1.80;0.83;;;3.10;99.90;;;;;;6237413;23;20158;-82
2023/01/16 06:23:06;;;;;;;5.28;0.82;;;3.20;99.90;;;;;;6239043;23;20186;-83
2023/01/16 06:25:31;;;;;;;1.10;0.70;;;3.10;99.90;;;;;;6237987;23;20255;-82
2023/01/16 06:27:57;;;;;;;1.40;0.80;;;3.10;99.90;;;;;;6237933;23;20177;-79
2023/01/16 06:30:22;;;;;;;1.67;0.73;;;3.10;99.90;;;;;;6240085;23;20171;-83
2023/01/16 06:32:49;;;;;;;1.07;0.60;;;3.00;99.90;;;;;;6239754;23;20161;-80
2023/01/16 06:35:16;;;;;;;2.58;1.20;;;3.00;99.90;;;;;;6236887;23;20153;-82
2023/01/16 06:37:42;;;;;;;1.65;0.68;;;2.90;99.90;;;;;;6237204;23;20689;-81
2023/01/16 06:40:09;;;;;;;5.25;3.72;;;2.90;99.90;;;;;;6238981;23;20238;-81
2023/01/16 06:42:35;;;;;;;4.25;1.80;;;2.80;99.90;;;;;;6240037;22;20399;-79
2023/01/16 06:45:00;;;;;;;4.50;3.05;;;2.70;99.90;;;;;;6237441;22;20399;-80
2023/01/16 06:47:27;;;;;;;1.73;1.30;;;2.80;99.90;;;;;;6230742;23;20172;-82
2023/01/16 06:49:53;;;;;;;7.97;1.45;;;2.80;99.90;;;;;;6235929;23;20153;-81
2023/01/16 06:52:18;;;;;;;2.20;1.10;;;2.80;99.90;;;;;;6232109;23;20188;-82
2023/01/16 06:54:44;;;;;;;1.70;0.60;;;2.90;99.90;;;;;;6232973;23;20387;-80
2023/01/16 06:57:09;;;;;;;9.60;1.30;;;2.80;99.90;;;;;;6236005;23;20141;-80
2023/01/16 06:59:35;;;;;;;1.37;0.90;;;2.80;99.90;;;;;;6238767;23;20195;-83
2023/01/16 07:02:00;;;;;;;1.90;1.33;;;2.80;99.90;;;;;;6231084;23;20815;-79
2023/01/16 07:04:26;;;;;;;1.90;1.10;;;2.70;99.90;;;;;;6232453;23;20474;-80
2023/01/16 07:06:52;;;;;;;5.17;1.30;;;2.70;99.90;;;;;;6230511;23;20154;-79
2023/01/16 07:09:18;;;;;;;1.10;0.80;;;2.70;99.90;;;;;;6228573;23;20195;-83
2023/01/16 07:11:44;;;;;;;4.30;2.20;;;2.80;99.90;;;;;;6232322;23;20160;-81
2023/01/16 07:22:34;;;;;;;3.45;1.75;;;2.80;99.90;;;;;;6235371;23;20178;-81
2023/01/16 07:25:06;;;;;;;1.88;1.60;;;2.80;99.90;;;;;;6235789;23;20177;-81
2023/01/16 07:27:32;;;;;;;3.88;1.60;;;2.80;99.90;;;;;;6244780;23;20179;-79
2023/01/16 07:29:58;;;;;;;2.50;1.00;;;2.90;99.90;;;;;;6235085;23;20156;-80
2023/01/16 07:32:23;;;;;;;1.83;1.27;;;2.90;99.90;;;;;;6236943;22;20164;-81
2023/01/16 07:34:49;;;;;;;0.70;0.63;;;2.90;99.90;;;;;;6245599;23;20145;-78
2023/01/16 07:37:14;;;;;;;2.57;0.90;;;2.90;99.90;;;;;;6254591;23;20153;-83
2023/01/16 07:39:40;;;;;;;1.53;0.80;;;3.00;99.90;;;;;;6236583;23;20156;-83
2023/01/16 07:42:07;;;;;;;2.00;0.80;;;3.10;99.90;;;;;;6236975;23;20179;-80
2023/01/16 07:44:32;;;;;;;6.35;0.98;;;3.10;99.90;;;;;;6236572;22;20157;-82
2023/01/16 07:46:58;;;;;;;5.73;0.90;;;3.20;99.90;;;;;;6234917;23;20250;-81
2023/01/16 07:49:23;;;;;;;1.30;1.20;;;3.20;99.90;;;;;;6232348;23;20184;-81
2023/01/16 07:51:49;;;;;;;7.67;2.03;;;3.20;99.90;;;;;;6236677;23;20214;-79
2023/01/16 07:54:14;;;;;;;2.40;1.40;;;3.20;99.90;;;;;;6236295;23;20179;-78
2023/01/16 07:56:40;;;;;;;1.37;0.90;;;3.30;99.90;;;;;;6237119;23;20159;-79
2023/01/16 07:59:06;;;;;;;3.13;1.73;;;3.30;99.90;;;;;;6252102;22;20144;-77
2023/01/16 08:01:33;;;;;;;4.07;1.02;;;3.30;99.90;;;;;;6241179;23;20219;-81
2023/01/16 08:03:59;;;;;;;1.25;1.15;;;3.30;99.90;;;;;;6237444;23;20152;-79
2023/01/16 08:06:25;;;;;;;1.20;1.00;;;3.30;99.90;;;;;;6237129;23;20556;-78
2023/01/16 08:08:50;;;;;;;2.43;0.93;;;3.30;99.90;;;;;;6237679;22;20176;-81
2023/01/16 08:11:35;;;;;;;1.37;0.80;;;3.40;99.90;;;;;;6239100;23;20599;-79
2023/01/16 08:14:02;;;;;;;3.63;1.10;;;3.40;99.90;;;;;;6236683;23;20172;-79
2023/01/16 08:16:27;;;;;;;1.73;1.05;;;3.40;99.90;;;;;;6240335;23;20145;-80
2023/01/16 08:18:53;;;;;;;1.67;1.20;;;3.50;99.90;;;;;;6232998;23;20230;-80
2023/01/16 08:21:19;;;;;;;1.47;0.70;;;3.50;99.90;;;;;;6240332;23;20152;-80
2023/01/16 08:23:47;;;;;;;1.20;0.90;;;3.60;99.90;;;;;;6235264;23;20211;-80
2023/01/16 08:26:13;;;;;;;4.15;1.25;;;3.50;99.90;;;;;;6237761;23;20363;-80
2023/01/16 08:28:39;;;;;;;3.03;1.20;;;3.50;99.90;;;;;;6236536;23;20180;-79
2023/01/16 08:31:11;;;;;;;2.75;1.23;;;3.60;99.90;;;;;;6238853;22;20239;-80
2023/01/16 08:33:41;;;;;;;2.42;1.10;;;3.60;99.90;;;;;;6237810;22;20169;-81
2023/01/16 08:36:08;;;;;;;1.33;1.05;;;3.70;99.90;;;;;;6239141;22;20653;-80
2023/01/16 08:38:34;;;;;;;2.85;0.95;;;3.70;99.90;;;;;;6231429;23;20161;-83
2023/01/16 08:41:01;;;;;;;4.30;1.67;;;3.70;99.90;;;;;;6232290;23;20160;-81
2023/01/16 08:51:57;;;;;;;1.50;1.20;;;3.90;99.90;;;;;;6237536;23;20195;-79
2023/01/16 08:54:23;;;;;;;1.92;1.00;;;4.00;99.90;;;;;;6235178;23;20247;-80
2023/01/16 08:56:48;;;;;;;2.13;1.10;;;3.90;99.90;;;;;;6235200;23;20263;-80
2023/01/16 08:59:14;;;;;;;1.47;0.60;;;3.90;99.90;;;;;;6236337;23;20210;-81
2023/01/16 09:01:41;;;;;;;2.90;0.90;;;4.00;99.90;;;;;;6231345;23;20211;-82
2023/01/16 09:04:06;;;;;;;1.30;0.93;;;3.90;99.90;;;;;;6231566;22;20595;-81
2023/01/16 09:06:35;;;;;;;1.50;1.07;;;3.90;99.90;;;;;;6247584;23;20148;-78
2023/01/16 09:09:02;;;;;;;1.55;0.85;;;3.90;99.90;;;;;;6248302;23;20188;-83
2023/01/16 09:14:12;;;;;;;2.00;0.73;;;3.90;99.90;;;;;;6253645;22;20155;-80
2023/01/16 09:16:38;;;;;;;11.47;1.30;;;3.80;99.90;;;;;;6261977;22;20441;-80
2023/01/16 09:19:04;;;;;;;3.17;1.30;;;3.90;99.90;;;;;;6245009;23;20168;-84
2023/01/16 09:21:29;;;;;;;3.60;0.80;;;4.00;99.90;;;;;;6240855;22;21104;-85
2023/01/16 09:23:55;;;;;;;1.20;1.03;;;4.00;99.90;;;;;;6240819;23;20387;-82
2023/01/16 09:26:20;;;;;;;4.73;1.10;;;4.00;99.90;;;;;;6243778;23;20163;-83
2023/01/16 09:28:46;;;;;;;2.97;1.00;;;4.10;99.90;;;;;;6239800;23;20334;-83
2023/01/16 09:31:11;;;;;;;2.03;1.03;;;4.00;99.90;;;;;;6240984;23;20148;-81
2023/01/16 09:33:37;;;;;;;2.77;1.47;;;4.00;99.90;;;;;;6240164;23;20195;-81
2023/01/16 09:36:03;;;;;;;3.33;1.03;;;4.00;99.90;;;;;;6240065;23;20141;-82
2023/01/16 09:38:29;;;;;;;3.00;1.58;;;3.90;99.90;;;;;;6239917;23;20166;-81
2023/01/16 09:40:57;;;;;;;1.83;0.90;;;4.00;99.90;;;;;;6240809;23;20705;-82
2023/01/16 09:43:38;;;;;;;3.28;1.40;;;4.00;99.90;;;;;;6238028;23;20172;-82
2023/01/16 09:46:25;;;;;;;4.22;1.30;;;4.10;99.90;;;;;;6233886;22;20144;-82
2023/01/16 09:49:03;;;;;;;2.15;1.35;;;4.10;99.90;;;;;;6233502;23;20180;-81
2023/01/16 09:51:34;;;;;;;3.25;1.10;;;4.20;99.90;;;;;;6236689;22;20137;-83
2023/01/16 09:59:58;;;;;;;2.60;0.82;;;4.30;99.90;;;;;;6235103;23;20148;-82
2023/01/16 10:02:27;;;;;;;1.35;0.65;;;4.40;99.90;;;;;;6233733;23;20641;-83
2023/01/16 10:04:55;;;;;;;2.50;0.93;;;4.50;99.90;;;;;;6233469;23;20594;-81
2023/01/16 10:07:27;;;;;;;1.98;1.20;;;4.50;99.90;;;;;;6236853;23;20153;-82
2023/01/16 10:09:55;;;;;;;1.40;0.63;;;4.60;99.90;;;;;;6237705;23;20693;-82
2023/01/16 10:12:24;;;;;;;0.93;0.68;;;4.70;99.90;;;;;;6242007;22;20184;-81
2023/01/16 10:14:57;;;;;;;4.22;1.08;;;4.70;99.90;;;;;;6239840;22;20137;-79
2023/01/16 10:17:42;;;;;;;3.63;0.60;;;4.80;99.90;;;;;;6241868;23;20144;-80
2023/01/16 10:20:41;;;;;;;1.90;0.60;;;4.80;99.90;;;;;;6237590;23;20167;-82
2023/01/16 10:23:43;;;;;;;1.80;0.90;;;4.90;99.90;;;;;;6237598;23;20185;-82
2023/01/16 10:26:47;;;;;;;0.70;0.50;;;5.00;99.90;;;;;;6220061;22;20222;-80
2023/01/16 10:29:34;;;;;;;1.58;0.47;;;5.00;99.90;;;;;;6254242;22;20182;-81
2023/01/16 10:32:06;;;;;;;1.30;0.47;;;5.00;99.90;;;;;;6239333;23;20172;-81
2023/01/16 10:35:17;;;;;;;0.90;0.57;;;5.00;99.90;;;;;;6241068;23;20156;-81
2023/01/16 10:37:45;;;;;;;3.53;0.88;;;5.10;99.90;;;;;;6272894;22;20590;-81
2023/01/16 10:40:15;;;;;;;0.50;0.50;;;5.10;99.90;;;;;;6252343;22;20155;-82
2023/01/16 10:51:06;;;;;;;1.88;0.63;;;5.20;99.90;;;;;;6239621;23;20199;-81
2023/01/16 10:53:34;;;;;;;0.40;0.40;;;5.20;99.90;;;;;;6241581;22;20179;-81
2023/01/16 10:56:00;;;;;;;0.73;0.45;;;5.20;99.90;;;;;;6245067;22;20148;-81
2023/01/16 10:58:28;;;;;;;0.85;0.68;;;5.30;99.90;;;;;;6246717;23;20171;-80
2023/01/16 11:00:59;;;;;;;2.03;0.57;;;5.20;99.90;;;;;;6238985;22;20188;-81
2023/01/16 11:03:41;;;;;;;1.52;0.65;;;5.30;99.90;;;;;;6235051;23;20409;-81
2023/01/16 11:06:09;;;;;;;1.13;0.60;;;5.40;99.90;;;;;;6235313;22;20142;-81
2023/01/16 11:08:35;;;;;;;0.57;0.35;;;5.30;99.90;;;;;;6235344;23;20190;-81
2023/01/16 11:11:01;;;;;;;1.50;0.97;;;5.40;99.90;;;;;;6238825;22;20231;-79
2023/01/16 11:19:18;;;;;;;1.85;0.60;;;5.50;99.90;;;;;;6236370;23;20151;-81
2023/01/16 11:21:50;;;;;;;1.50;1.30;;;5.50;99.90;;;;;;6236829;22;20208;-80
2023/01/16 11:24:20;;;;;;;2.97;1.60;;;5.70;99.90;;;;;;6234057;23;20180;-78
2023/01/16 11:26:50;;;;;;;0.93;0.70;;;5.70;99.90;;;;;;6237281;22;20158;-82
2023/01/16 11:29:17;;;;;;;5.38;1.25;;;5.70;99.90;;;;;;6236886;23;20657;-80
2023/01/16 11:31:53;;;;;;;2.72;1.02;;;6.00;99.90;;;;;;6233929;23;20179;-80
2023/01/16 11:34:18;;;;;;;1.17;0.50;;;5.80;99.90;;;;;;6246096;22;20132;-77
2023/01/16 11:36:44;;;;;;;2.00;0.60;;;6.00;99.90;;;;;;6245922;22;20183;-79
2023/01/16 11:39:21;;;;;;;1.80;0.60;;;5.90;99.90;;;;;;6238976;22;20152;-83
2023/01/16 11:41:51;;;;;;;0.60;0.60;;;6.00;99.90;;;;;;6238790;23;20433;-83
2023/01/16 11:47:10;;;;;;;0.77;0.40;;;6.00;99.90;;;;;;6238382;23;20198;-82
2023/01/16 11:49:40;;;;;;;2.03;0.82;;;6.10;99.90;;;;;;6235564;23;20164;-82
2023/01/16 11:52:13;;;;;;;1.00;0.73;;;6.10;99.90;;;;;;6235463;23;20188;-79
2023/01/16 11:54:38;;;;;;;4.35;0.90;;;6.10;99.90;;;;;;6233622;23;20236;-81
2023/01/16 11:57:27;;;;;;;0.50;0.43;;;6.10;99.90;;;;;;6236489;23;20184;-80
2023/01/16 12:00:24;;;;;;;1.63;1.10;;;6.10;99.90;;;;;;6236595;23;20148;-81
2023/01/16 12:02:57;;;;;;;0.95;0.60;;;6.20;99.90;;;;;;6232708;23;20168;-82
2023/01/16 12:08:25;;;;;;;1.13;0.93;;;6.20;99.90;;;;;;6251243;23;20171;-76
2023/01/16 12:11:14;;;;;;;0.65;0.40;;;6.20;99.90;;;;;;6253279;23;20148;-79
2023/01/16 12:16:50;;;;;;;0.85;0.65;;;6.10;99.90;;;;;;6236643;23;20525;-82
2023/01/16 12:19:46;;;;;;;2.95;1.10;;;6.30;99.90;;;;;;6232004;23;20142;-81
2023/01/16 12:22:28;;;;;;;1.92;0.95;;;6.20;99.90;;;;;;6234814;23;20259;-80
2023/01/16 12:25:16;;;;;;;0.80;0.60;;;6.30;99.90;;;;;;6236376;23;20316;-82
2023/01/16 12:28:00;;;;;;;0.80;0.50;;;6.30;99.90;;;;;;6233699;22;20889;-81
2023/01/16 12:30:34;;;;;;;0.60;0.60;;;6.30;99.90;;;;;;6235437;23;20594;-80
2023/01/16 12:33:15;;;;;;;1.42;0.57;;;6.30;99.90;;;;;;6232934;23;20179;-81
2023/01/16 12:36:08;;;;;;;1.40;0.70;;;6.30;99.90;;;;;;6230213;22;20208;-84
2023/01/16 12:38:49;;;;;;;1.30;1.00;;;6.30;99.90;;;;;;6244038;22;20156;-81
2023/01/16 12:44:57;;;;;;;0.60;0.57;;;6.20;99.90;;;;;;6235849;23;20187;-83
2023/01/16 12:47:35;;;;;;;0.95;0.57;;;6.40;99.90;;;;;;6234172;23;20223;-83
2023/01/16 12:50:19;;;;;;;1.73;1.08;;;6.40;99.90;;;;;;6234208;23;20180;-79
2023/01/16 12:53:07;;;;;;;0.50;0.40;;;6.50;99.90;;;;;;6235324;23;20538;-83
2023/01/16 12:55:45;;;;;;;2.50;0.45;;;6.60;99.90;;;;;;6233483;23;20156;-80
2023/01/16 12:58:15;;;;;;;0.50;0.47;;;6.70;99.90;;;;;;6236306;23;20463;-82
2023/01/16 13:00:45;;;;;;;1.08;0.63;;;6.50;99.90;;;;;;6239963;22;20819;-78
2023/01/16 13:03:11;;;;;;;0.57;0.50;;;6.60;99.90;;;;;;6260630;22;20418;-84
2023/01/16 13:05:40;;;;;;;0.77;0.40;;;6.60;99.90;;;;;;6240802;23;20152;-81
2023/01/16 13:08:33;;;;;;;0.40;0.40;;;6.50;99.90;;;;;;6242928;23;20203;-79
2023/01/16 13:13:59;;;;;;;1.73;0.40;;;6.50;99.90;;;;;;6241512;23;20140;-82
2023/01/16 13:16:42;;;;;;;2.35;0.50;;;6.50;99.90;;;;;;6237091;23;20249;-83
2023/01/16 13:19:14;;;;;;;4.32;1.50;;;6.60;99.90;;;;;;6229739;23;20159;-83
2023/01/16 13:22:05;;;;;;;1.50;0.90;;;6.70;99.90;;;;;;6234409;23;20136;-81
2023/01/16 13:24:38;;;;;;;1.50;0.82;;;6.80;99.90;;;;;;6233584;23;20764;-83
2023/01/16 13:27:09;;;;;;;0.68;0.43;;;6.60;99.90;;;;;;6236730;23;20176;-82
2023/01/16 13:29:55;;;;;;;0.60;0.52;;;6.60;99.90;;;;;;6238274;22;20160;-83
2023/01/16 13:32:36;;;;;;;0.40;0.40;;;6.60;99.90;;;;;;6233889;22;20164;-80
2023/01/16 13:35:15;;;;;;;1.52;0.40;;;6.70;99.90;;;;;;6237543;22;20133;-80
2023/01/16 13:37:49;;;;;;;0.40;0.40;;;6.60;99.90;;;;;;6249872;22;20140;-82
2023/01/16 13:40:23;;;;;;;0.57;0.50;;;6.70;99.90;;;;;;6250944;23;20140;-83
2023/01/16 13:42:53;;;;;;;1.23;0.82;;;6.70;99.90;;;;;;6242080;22;20266;-82
2023/01/16 13:45:48;;;;;;;1.13;1.02;;;6.60;99.90;;;;;;6235605;22;20137;-80
2023/01/16 13:48:17;;;;;;;3.28;0.60;;;6.70;99.90;;;;;;6236139;23;20191;-82
2023/01/16 13:50:48;;;;;;;0.75;0.60;;;6.80;99.90;;;;;;6235702;23;20148;-80
2023/01/16 13:53:14;;;;;;;1.58;0.60;;;6.80;99.90;;;;;;6232082;23;20192;-80
2023/01/16 13:55:42;;;;;;;0.73;0.57;;;6.80;99.90;;;;;;6237137;23;20426;-80
2023/01/16 13:58:25;;;;;;;1.30;0.90;;;6.80;99.90;;;;;;6232687;23;20165;-82
2023/01/16 14:01:01;;;;;;;0.60;0.50;;;6.90;99.90;;;;;;6234293;22;20152;-82
2023/01/16 14:03:29;;;;;;;3.47;1.52;;;6.80;99.90;;;;;;6234464;22;20238;-82
2023/01/16 14:06:16;;;;;;;1.17;0.60;;;6.80;99.90;;;;;;6235348;22;20155;-83
2023/01/16 14:09:20;;;;;;;1.17;0.70;;;6.80;99.90;;;;;;6234684;22;20179;-81
2023/01/16 14:12:02;;;;;;;0.60;0.40;;;6.80;99.90;;;;;;6231921;23;20678;-80
2023/01/16 14:17:50;;;;;;;0.50;0.50;;;7.00;99.90;;;;;;6248717;22;20159;-79
2023/01/16 14:20:43;;;;;;;1.98;0.73;;;7.00;99.90;;;;;;6212082;23;20243;-82
2023/01/16 14:26:04;;;;;;;1.67;1.05;;;7.20;99.90;;;;;;6236229;23;20497;-82